Time;durP1;ratioP1;P1;durP2;ratioP2;P2;SDS_P1;SDS_P2;PMS_P1;PMS_P2;Temp;Humidity;BMP_temperature;BMP_pressure;BME280_temperature;BME280_humidity;BME280_pressure;Samples;Min_cycle;Max_cycle;Signal;HPM_P1;HPM_P2
2023/09/23 00:00:12;;;;;;;7.32;2.80;;;13.90;99.90;;;;;;5026985;28;20082;-88
2023/09/23 00:02:39;;;;;;;6.03;2.35;;;13.80;99.90;;;;;;5027852;28;20055;-88
2023/09/23 00:05:11;;;;;;;12.63;6.40;;;13.70;99.90;;;;;;5044542;28;20123;-88
2023/09/23 00:07:38;;;;;;;6.60;2.60;;;13.80;99.90;;;;;;5028595;28;20485;-89
2023/09/23 00:10:08;;;;;;;9.90;6.93;;;13.70;99.90;;;;;;5041812;28;20091;-88
2023/09/23 00:12:38;;;;;;;9.27;6.72;;;13.70;99.90;;;;;;5044312;28;20040;-88
2023/09/23 00:15:07;;;;;;;6.28;2.45;;;13.80;99.90;;;;;;5022968;28;20055;-88
2023/09/23 00:17:37;;;;;;;9.05;6.82;;;13.70;99.90;;;;;;5027531;28;20075;-88
2023/09/23 00:20:14;;;;;;;6.80;2.70;;;13.70;99.90;;;;;;5041481;28;20393;-89
2023/09/23 00:22:47;;;;;;;8.68;6.88;;;13.70;99.90;;;;;;5044028;28;20095;-88
2023/09/23 00:25:16;;;;;;;6.55;2.95;;;13.60;99.90;;;;;;5027656;28;20484;-89
2023/09/23 00:27:42;;;;;;;7.43;3.25;;;13.60;99.90;;;;;;5027336;28;20428;-88
2023/09/23 00:30:09;;;;;;;6.30;2.65;;;13.50;99.90;;;;;;5027510;28;20043;-89
2023/09/23 00:32:34;;;;;;;6.70;3.28;;;13.40;99.90;;;;;;5044088;28;20067;-89
2023/09/23 00:35:01;;;;;;;10.77;8.95;;;13.40;99.90;;;;;;5027379;28;20029;-89
2023/09/23 00:37:27;;;;;;;9.85;3.83;;;13.50;99.90;;;;;;5027191;28;20037;-88
2023/09/23 00:39:53;;;;;;;8.73;4.00;;;13.50;99.90;;;;;;5050961;28;20451;-88
2023/09/23 00:42:19;;;;;;;11.90;9.85;;;13.40;99.90;;;;;;5024393;28;20518;-88
2023/09/23 00:44:45;;;;;;;8.07;4.13;;;13.40;99.90;;;;;;5027220;28;20487;-88
2023/09/23 00:47:13;;;;;;;7.85;3.60;;;13.40;99.90;;;;;;5027153;28;20048;-88
2023/09/23 00:49:44;;;;;;;9.68;4.60;;;13.40;99.90;;;;;;5032105;28;20028;-88
2023/09/23 00:52:13;;;;;;;11.02;9.52;;;13.30;99.90;;;;;;5043497;28;20515;-88
2023/09/23 00:54:46;;;;;;;9.45;3.83;;;13.40;99.90;;;;;;5043761;28;20036;-88
2023/09/23 00:57:14;;;;;;;9.60;4.43;;;13.40;99.90;;;;;;5027121;28;20045;-88
2023/09/23 00:59:40;;;;;;;8.02;3.83;;;13.30;99.90;;;;;;5026554;28;20036;-89
2023/09/23 01:02:06;;;;;;;10.93;8.60;;;13.20;99.90;;;;;;5051039;28;20041;-89
2023/09/23 01:04:35;;;;;;;8.00;3.30;;;13.30;99.90;;;;;;5043460;28;20041;-88
2023/09/23 01:07:01;;;;;;;7.68;3.15;;;13.20;99.90;;;;;;5035005;28;20515;-89
2023/09/23 01:09:27;;;;;;;7.50;2.33;;;13.20;99.90;;;;;;5050928;28;20068;-89
2023/09/23 01:11:54;;;;;;;7.50;2.22;;;13.10;99.90;;;;;;5051994;28;20040;-89
2023/09/23 01:14:21;;;;;;;6.72;3.10;;;13.00;99.90;;;;;;5034431;28;20045;-89
2023/09/23 01:16:51;;;;;;;5.13;1.70;;;13.00;99.90;;;;;;5021441;28;20043;-89
2023/09/23 01:19:18;;;;;;;6.95;4.10;;;13.00;99.90;;;;;;5044090;28;20545;-89
2023/09/23 01:21:48;;;;;;;6.88;3.58;;;13.00;99.90;;;;;;5017015;28;20083;-89
2023/09/23 01:24:18;;;;;;;7.80;4.00;;;13.00;99.90;;;;;;5016852;28;20047;-88
2023/09/23 01:26:51;;;;;;;6.70;3.50;;;13.00;99.90;;;;;;5017364;28;20076;-89
2023/09/23 01:29:22;;;;;;;4.53;1.63;;;13.00;99.90;;;;;;5016689;28;20038;-89
2023/09/23 01:32:10;;;;;;;2.22;0.90;;;13.00;99.90;;;;;;5016796;28;20033;-89
2023/09/23 01:34:36;;;;;;;5.47;2.58;;;12.80;99.90;;;;;;5033385;28;20096;-89
2023/09/23 01:37:01;;;;;;;7.03;2.90;;;12.90;99.90;;;;;;5016932;28;20036;-89
2023/09/23 01:39:27;;;;;;;3.03;1.33;;;12.90;99.90;;;;;;5033197;28;20033;-89
2023/09/23 01:41:54;;;;;;;5.00;1.85;;;12.80;99.90;;;;;;5016799;28;20562;-89
2023/09/23 01:44:20;;;;;;;5.82;2.00;;;12.80;99.90;;;;;;5032994;28;20045;-89
2023/09/23 01:46:46;;;;;;;4.93;1.88;;;12.70;99.90;;;;;;5033386;28;20397;-89
2023/09/23 01:49:12;;;;;;;8.85;5.35;;;12.70;99.90;;;;;;5032032;28;20132;-89
2023/09/23 01:51:38;;;;;;;5.03;2.10;;;12.70;99.90;;;;;;5032967;28;20125;-88
2023/09/23 01:54:04;;;;;;;5.63;2.42;;;12.70;99.90;;;;;;5016762;28;20167;-89
2023/09/23 01:56:31;;;;;;;8.65;2.75;;;12.70;99.90;;;;;;5016515;28;20033;-88
2023/09/23 01:58:57;;;;;;;9.40;3.60;;;12.70;99.90;;;;;;5019376;28;20045;-89
2023/09/23 02:01:23;;;;;;;7.13;2.97;;;12.70;99.90;;;;;;5037144;28;20465;-88
2023/09/23 02:03:50;;;;;;;9.27;6.97;;;12.70;99.90;;;;;;5036801;28;20033;-88
2023/09/23 02:06:15;;;;;;;6.13;2.40;;;12.70;99.90;;;;;;5036709;28;20041;-86
2023/09/23 02:08:41;;;;;;;9.95;7.40;;;12.70;99.90;;;;;;5036601;28;20039;-88
2023/09/23 02:11:07;;;;;;;7.03;2.72;;;12.80;99.90;;;;;;5036757;28;20646;-89
2023/09/23 02:13:36;;;;;;;10.40;8.27;;;12.70;99.90;;;;;;5037115;28;20036;-89
2023/09/23 02:16:04;;;;;;;5.78;2.50;;;12.80;99.90;;;;;;5020254;28;20116;-88
2023/09/23 02:18:30;;;;;;;5.85;2.92;;;12.80;99.90;;;;;;5019948;28;20096;-89
2023/09/23 02:20:56;;;;;;;5.95;2.75;;;12.70;99.90;;;;;;5019941;28;20045;-88
2023/09/23 02:23:22;;;;;;;6.93;2.38;;;12.70;99.90;;;;;;5019845;28;20124;-89
2023/09/23 02:25:50;;;;;;;7.43;2.97;;;12.70;99.90;;;;;;5036226;28;20045;-89
2023/09/23 02:28:18;;;;;;;6.97;2.70;;;12.60;99.90;;;;;;5018938;28;20044;-88
2023/09/23 02:30:44;;;;;;;9.15;5.97;;;12.60;99.90;;;;;;5019624;28;20044;-89
2023/09/23 02:33:10;;;;;;;7.57;2.63;;;12.70;99.90;;;;;;5019661;28;20041;-88
2023/09/23 02:35:35;;;;;;;6.43;2.33;;;12.70;99.90;;;;;;5019506;28;20115;-89
2023/09/23 02:38:01;;;;;;;9.15;6.60;;;12.70;99.90;;;;;;5035841;28;20461;-88
2023/09/23 02:40:27;;;;;;;6.35;2.13;;;12.70;99.90;;;;;;5035708;28;20047;-88
2023/09/23 02:42:53;;;;;;;10.05;5.78;;;12.70;99.90;;;;;;5019167;28;20048;-89
2023/09/23 02:45:22;;;;;;;6.15;2.50;;;12.60;99.90;;;;;;5019533;28;20045;-88
2023/09/23 02:47:49;;;;;;;8.93;5.70;;;12.60;99.90;;;;;;5019232;28;20110;-88
2023/09/23 02:50:17;;;;;;;5.25;2.35;;;12.60;99.90;;;;;;5052365;28;20047;-88
2023/09/23 02:52:49;;;;;;;8.70;5.38;;;12.50;99.90;;;;;;5019182;28;20045;-89
2023/09/23 02:55:16;;;;;;;5.97;2.15;;;12.50;99.90;;;;;;5053511;28;20461;-89
2023/09/23 02:57:48;;;;;;;7.00;2.50;;;12.40;99.90;;;;;;5035645;28;20049;-89
2023/09/23 03:00:19;;;;;;;8.27;5.57;;;12.40;99.90;;;;;;5052400;28;20106;-89
2023/09/23 03:02:48;;;;;;;10.95;2.65;;;12.40;99.90;;;;;;5018908;28;20037;-89
2023/09/23 03:05:16;;;;;;;6.40;2.75;;;12.30;99.90;;;;;;5019067;28;20484;-89
2023/09/23 03:07:50;;;;;;;10.63;3.53;;;12.20;99.90;;;;;;5018810;28;20040;-89
2023/09/23 03:10:19;;;;;;;10.50;6.28;;;12.20;99.90;;;;;;5034601;28;20127;-89
2023/09/23 03:12:51;;;;;;;12.48;2.65;;;12.20;99.90;;;;;;5019121;28;20043;-89
2023/09/23 03:15:20;;;;;;;10.52;6.95;;;12.20;99.90;;;;;;5052375;28;20090;-89
2023/09/23 03:17:50;;;;;;;10.23;8.02;;;12.10;99.90;;;;;;5018716;28;20033;-89
2023/09/23 03:20:25;;;;;;;7.15;2.75;;;12.20;99.90;;;;;;5034734;28;20041;-89
2023/09/23 03:22:52;;;;;;;7.95;2.95;;;12.20;99.90;;;;;;5018707;28;20044;-88
2023/09/23 03:25:19;;;;;;;11.35;9.30;;;12.10;99.90;;;;;;5018733;28;20041;-89
2023/09/23 03:27:50;;;;;;;8.27;3.60;;;12.10;99.90;;;;;;5034940;28;20037;-88
2023/09/23 03:30:16;;;;;;;9.50;4.10;;;12.10;99.90;;;;;;5035024;28;20051;-89
2023/09/23 03:32:43;;;;;;;9.05;3.92;;;12.00;99.90;;;;;;5035066;28;20082;-89
2023/09/23 03:35:14;;;;;;;9.15;3.75;;;12.00;99.90;;;;;;5018529;28;20043;-88
2023/09/23 03:37:40;;;;;;;11.82;10.40;;;12.00;99.90;;;;;;5018453;28;20124;-88
2023/09/23 03:40:07;;;;;;;9.05;4.15;;;12.00;99.90;;;;;;5018565;28;20453;-89
2023/09/23 03:42:34;;;;;;;8.38;3.65;;;12.00;99.90;;;;;;5034879;28;20099;-89
2023/09/23 03:44:59;;;;;;;8.85;4.72;;;12.00;99.90;;;;;;5034712;28;20048;-89
2023/09/23 03:47:25;;;;;;;10.50;4.72;;;11.90;99.90;;;;;;5018803;28;20029;-89
2023/09/23 03:49:51;;;;;;;10.07;4.72;;;11.90;99.90;;;;;;5018490;28;20124;-89
2023/09/23 03:52:17;;;;;;;11.27;5.25;;;11.90;99.90;;;;;;5037271;28;20385;-89
2023/09/23 03:54:43;;;;;;;13.43;12.02;;;11.90;99.90;;;;;;5006983;28;20041;-89
2023/09/23 03:57:08;;;;;;;10.98;5.28;;;11.90;99.90;;;;;;4998285;28;20048;-88
2023/09/23 03:59:36;;;;;;;11.73;5.03;;;11.90;99.90;;;;;;5000652;28;20064;-88
2023/09/23 04:02:01;;;;;;;9.25;4.47;;;11.80;99.90;;;;;;5034842;28;20047;-89
2023/09/23 04:04:27;;;;;;;9.25;4.00;;;11.80;99.90;;;;;;5017813;28;20420;-88
2023/09/23 04:06:52;;;;;;;11.05;6.15;;;11.70;99.90;;;;;;5017822;28;20498;-88
2023/09/23 04:09:18;;;;;;;14.15;12.63;;;11.70;99.90;;;;;;5017388;28;20036;-89
2023/09/23 04:11:45;;;;;;;10.55;5.25;;;11.70;99.90;;;;;;5034284;28;20080;-89
2023/09/23 04:14:11;;;;;;;9.77;4.35;;;11.80;99.90;;;;;;5017831;28;20495;-89
2023/09/23 04:16:37;;;;;;;10.50;5.28;;;11.70;99.90;;;;;;5034025;28;20043;-89
2023/09/23 04:19:03;;;;;;;10.18;4.70;;;11.70;99.90;;;;;;5017596;28;20091;-89
2023/09/23 04:21:30;;;;;;;10.25;4.97;;;11.60;99.90;;;;;;5017352;28;20438;-89
2023/09/23 04:23:57;;;;;;;12.02;4.95;;;11.60;99.90;;;;;;5017507;28;20076;-88
2023/09/23 04:26:24;;;;;;;10.13;4.38;;;11.60;99.90;;;;;;5017322;28;20037;-88
2023/09/23 04:28:52;;;;;;;9.73;4.78;;;11.60;99.90;;;;;;5033770;28;20120;-88
2023/09/23 04:31:19;;;;;;;12.88;4.60;;;11.60;99.90;;;;;;5034303;28;20041;-89
2023/09/23 04:33:46;;;;;;;16.05;14.35;;;11.50;99.90;;;;;;5017738;28;20044;-88
2023/09/23 04:36:13;;;;;;;16.33;14.52;;;11.70;99.90;;;;;;5017556;28;20420;-88
2023/09/23 04:38:38;;;;;;;8.18;3.85;;;11.70;99.90;;;;;;5017160;28;20036;-89
2023/09/23 04:41:05;;;;;;;11.18;5.53;;;11.70;99.90;;;;;;5051636;28;20068;-89
2023/09/23 04:43:31;;;;;;;10.70;5.30;;;11.60;99.90;;;;;;5033798;28;20508;-88
2023/09/23 04:45:57;;;;;;;10.73;6.00;;;11.60;99.90;;;;;;5017212;28;20039;-89
2023/09/23 04:48:26;;;;;;;11.18;5.20;;;11.50;99.90;;;;;;5033538;28;20040;-89
2023/09/23 04:50:55;;;;;;;9.82;5.05;;;11.50;99.90;;;;;;5033856;28;20597;-88
2023/09/23 04:53:21;;;;;;;10.77;5.55;;;11.50;99.90;;;;;;5033446;28;20049;-89
2023/09/23 04:55:47;;;;;;;14.38;5.80;;;11.50;99.90;;;;;;5033593;28;20516;-87
2023/09/23 04:58:13;;;;;;;13.13;7.00;;;11.60;99.90;;;;;;5033357;28;20058;-88
2023/09/23 05:00:39;;;;;;;13.70;6.10;;;11.60;99.90;;;;;;5033489;28;20447;-89
2023/09/23 05:03:05;;;;;;;16.35;7.10;;;11.60;99.90;;;;;;5033549;28;20041;-89
2023/09/23 05:05:31;;;;;;;13.93;6.78;;;11.60;99.90;;;;;;5017464;28;20033;-89
2023/09/23 05:07:59;;;;;;;14.20;6.38;;;11.60;99.90;;;;;;5016815;28;20538;-88
2023/09/23 05:10:26;;;;;;;17.55;8.75;;;11.70;99.90;;;;;;5016814;28;20044;-88
2023/09/23 05:12:56;;;;;;;16.02;9.10;;;11.70;99.90;;;;;;5033668;28;20048;-88
2023/09/23 05:15:24;;;;;;;18.50;6.90;;;11.70;99.90;;;;;;5050992;28;20132;-88
2023/09/23 05:17:50;;;;;;;15.38;7.70;;;11.70;99.90;;;;;;5051243;28;20048;-88
2023/09/23 05:20:18;;;;;;;15.60;8.77;;;11.70;99.90;;;;;;5017013;28;20419;-89
2023/09/23 05:22:44;;;;;;;15.85;8.57;;;11.70;99.90;;;;;;5033261;28;20131;-88
2023/09/23 05:25:11;;;;;;;18.27;8.68;;;11.70;99.90;;;;;;5016773;28;20088;-88
2023/09/23 05:27:40;;;;;;;16.92;8.73;;;11.70;99.90;;;;;;5017210;28;20041;-89
2023/09/23 05:30:07;;;;;;;16.35;8.65;;;11.70;99.90;;;;;;5033320;28;20040;-88
2023/09/23 05:32:35;;;;;;;17.30;8.07;;;11.70;99.90;;;;;;5034493;28;20033;-88
2023/09/23 05:35:01;;;;;;;18.30;10.40;;;11.70;99.90;;;;;;5037300;28;20615;-88
2023/09/23 05:37:26;;;;;;;17.52;10.52;;;11.70;99.90;;;;;;5054619;28;20098;-89
2023/09/23 05:39:53;;;;;;;31.73;28.63;;;11.80;99.90;;;;;;5054630;28;20073;-89
2023/09/23 05:42:23;;;;;;;15.57;8.35;;;11.80;99.90;;;;;;5037384;28;20037;-88
2023/09/23 05:44:49;;;;;;;19.00;9.77;;;11.90;99.90;;;;;;5020633;28;20045;-88
2023/09/23 05:47:15;;;;;;;35.13;31.65;;;11.90;99.90;;;;;;5037015;28;20124;-88
2023/09/23 05:49:42;;;;;;;20.60;11.88;;;11.90;99.90;;;;;;5036807;28;20128;-88
2023/09/23 05:52:08;;;;;;;18.83;10.90;;;12.00;99.90;;;;;;5053663;28;20041;-88
2023/09/23 05:54:34;;;;;;;20.15;10.75;;;11.90;99.90;;;;;;5054615;28;20043;-89
2023/09/23 05:56:59;;;;;;;19.65;10.10;;;11.90;99.90;;;;;;5036934;28;20039;-89
2023/09/23 05:59:25;;;;;;;22.83;12.23;;;11.90;99.90;;;;;;5036762;28;20496;-88
2023/09/23 06:01:51;;;;;;;22.65;12.25;;;12.00;99.90;;;;;;5036806;28;20033;-89
2023/09/23 06:04:16;;;;;;;36.67;33.17;;;12.00;99.90;;;;;;5020068;28;20048;-88
2023/09/23 06:06:43;;;;;;;21.77;11.57;;;12.10;99.90;;;;;;5020090;28;20044;-88
2023/09/23 06:09:08;;;;;;;18.50;10.52;;;12.10;99.90;;;;;;5036228;28;20112;-89
2023/09/23 06:11:34;;;;;;;21.27;11.95;;;12.10;99.90;;;;;;5020168;28;20776;-88
2023/09/23 06:14:00;;;;;;;15.65;9.50;;;12.10;99.90;;;;;;5036500;28;20462;-88
2023/09/23 06:16:26;;;;;;;18.10;10.48;;;12.10;99.90;;;;;;5019829;28;20044;-88
2023/09/23 06:18:51;;;;;;;19.17;10.95;;;12.10;99.90;;;;;;5040844;28;20033;-88
2023/09/23 06:21:17;;;;;;;19.42;11.45;;;12.10;99.90;;;;;;5036195;28;20040;-89
2023/09/23 06:23:43;;;;;;;21.65;12.65;;;12.10;99.90;;;;;;5019718;28;20115;-88
2023/09/23 06:26:10;;;;;;;18.63;10.43;;;12.10;99.90;;;;;;5036704;28;20108;-89
2023/09/23 06:28:36;;;;;;;22.73;11.93;;;12.10;99.90;;;;;;5022723;28;20033;-89
2023/09/23 06:31:03;;;;;;;19.17;11.48;;;12.10;99.90;;;;;;5034910;28;20057;-88
2023/09/23 06:33:29;;;;;;;36.50;32.83;;;12.20;99.90;;;;;;5022004;28;20041;-89
2023/09/23 06:35:55;;;;;;;20.63;10.55;;;12.20;99.90;;;;;;5020082;28;20381;-89
2023/09/23 06:38:21;;;;;;;20.02;9.25;;;12.20;99.90;;;;;;5019171;28;20110;-88
2023/09/23 06:40:46;;;;;;;19.63;10.75;;;12.20;99.90;;;;;;5019704;28;20037;-88
2023/09/23 06:43:12;;;;;;;15.50;9.23;;;12.20;99.90;;;;;;5019268;28;20133;-88
2023/09/23 06:45:38;;;;;;;15.73;9.57;;;12.20;99.90;;;;;;5036003;28;20068;-88
2023/09/23 06:48:05;;;;;;;20.42;10.80;;;12.20;99.90;;;;;;5035706;28;20087;-88
2023/09/23 06:50:31;;;;;;;22.48;10.70;;;12.30;99.90;;;;;;5019149;28;20036;-88
2023/09/23 06:52:57;;;;;;;34.90;31.45;;;12.30;99.90;;;;;;5036017;28;20404;-89
2023/09/23 06:55:22;;;;;;;21.52;11.90;;;12.40;99.90;;;;;;5019242;28;20037;-89
2023/09/23 06:57:48;;;;;;;24.90;10.55;;;12.40;99.90;;;;;;5019226;28;20108;-89
2023/09/23 07:00:14;;;;;;;22.70;11.73;;;12.40;99.90;;;;;;5019190;28;20041;-89
2023/09/23 07:02:40;;;;;;;17.60;9.93;;;12.40;99.90;;;;;;5019256;28;20040;-88
2023/09/23 07:05:05;;;;;;;34.80;31.25;;;12.50;99.90;;;;;;5018940;28;20048;-88
2023/09/23 07:07:31;;;;;;;20.45;12.40;;;12.50;99.90;;;;;;5035333;28;20033;-89
2023/09/23 07:09:57;;;;;;;22.80;11.25;;;12.60;99.90;;;;;;5035770;28;20051;-89
2023/09/23 07:12:23;;;;;;;20.70;11.25;;;12.60;99.90;;;;;;5036314;28;20052;-88
2023/09/23 07:14:49;;;;;;;22.77;11.85;;;12.60;99.90;;;;;;5035765;28;20102;-89
2023/09/23 07:17:15;;;;;;;19.52;10.77;;;12.60;99.90;;;;;;5035415;28;20041;-88
2023/09/23 07:19:40;;;;;;;20.15;11.40;;;12.70;99.90;;;;;;5035240;28;20454;-88
2023/09/23 07:22:06;;;;;;;23.05;10.63;;;12.70;99.90;;;;;;5035729;28;20541;-88
2023/09/23 07:24:35;;;;;;;23.65;11.20;;;12.70;99.90;;;;;;5035452;28;20094;-88
2023/09/23 07:27:01;;;;;;;20.25;10.07;;;12.80;99.90;;;;;;5035246;28;20033;-88
2023/09/23 07:29:27;;;;;;;18.73;10.32;;;12.80;99.90;;;;;;5022119;28;20036;-88
2023/09/23 07:31:53;;;;;;;19.38;10.48;;;12.90;99.90;;;;;;5035245;28;20492;-89
2023/09/23 07:34:19;;;;;;;17.67;11.18;;;12.90;99.90;;;;;;5018453;28;20492;-88
2023/09/23 07:36:45;;;;;;;31.83;28.73;;;13.00;99.90;;;;;;5034845;28;20040;-88
2023/09/23 07:39:12;;;;;;;20.00;11.18;;;13.00;99.90;;;;;;5034826;28;20037;-88
2023/09/23 07:41:38;;;;;;;31.40;28.38;;;13.10;99.90;;;;;;5018419;28;20488;-88
2023/09/23 07:44:04;;;;;;;21.80;11.30;;;13.20;99.90;;;;;;5034780;28;20033;-89
2023/09/23 07:46:30;;;;;;;19.88;10.95;;;13.20;99.90;;;;;;5035989;28;20025;-88
2023/09/23 07:48:56;;;;;;;33.25;30.02;;;13.20;99.90;;;;;;5034421;28;20045;-88
2023/09/23 07:51:22;;;;;;;20.73;12.18;;;13.30;99.90;;;;;;5034454;28;20094;-88
2023/09/23 07:53:47;;;;;;;18.63;9.90;;;13.40;99.90;;;;;;5018194;28;20412;-88
2023/09/23 07:56:13;;;;;;;23.70;13.90;;;13.40;99.90;;;;;;5034218;28;20041;-89
2023/09/23 07:58:38;;;;;;;19.13;10.75;;;13.50;99.90;;;;;;5034071;28;20036;-88
2023/09/23 08:01:04;;;;;;;15.02;9.07;;;13.60;99.90;;;;;;5034884;28;20112;-89
2023/09/23 08:03:30;;;;;;;20.58;10.73;;;13.80;99.90;;;;;;5034089;28;20044;-89
2023/09/23 08:05:56;;;;;;;17.17;11.35;;;13.90;99.90;;;;;;5017461;28;20048;-89
2023/09/23 08:08:22;;;;;;;17.98;10.90;;;13.90;99.90;;;;;;5017172;28;20124;-88
2023/09/23 08:10:50;;;;;;;17.27;8.48;;;13.90;99.90;;;;;;5034598;28;20044;-88
2023/09/23 08:13:20;;;;;;;15.75;9.80;;;14.00;99.90;;;;;;5017935;28;20091;-89
2023/09/23 08:15:46;;;;;;;25.45;22.95;;;14.00;99.90;;;;;;5022924;28;20048;-89
2023/09/23 08:18:12;;;;;;;24.05;21.55;;;14.10;99.90;;;;;;5035053;28;20067;-88
2023/09/23 08:20:39;;;;;;;15.27;8.00;;;14.30;99.90;;;;;;5034212;28;20040;-89
2023/09/23 08:23:05;;;;;;;14.88;7.63;;;14.30;99.90;;;;;;5034121;28;20056;-88
2023/09/23 08:25:31;;;;;;;16.13;8.20;;;14.30;99.90;;;;;;5034394;28;20041;-88
2023/09/23 08:27:57;;;;;;;21.20;19.20;;;14.20;99.90;;;;;;5017677;28;20518;-88
2023/09/23 08:30:23;;;;;;;13.05;7.85;;;14.30;99.90;;;;;;5034125;28;20041;-89
2023/09/23 08:32:49;;;;;;;16.02;8.65;;;14.30;99.90;;;;;;5021458;28;20037;-89
2023/09/23 08:35:15;;;;;;;22.90;20.65;;;14.20;99.90;;;;;;5034263;28;20033;-88
2023/09/23 08:37:40;;;;;;;44.92;10.80;;;14.20;99.90;;;;;;5017479;28;20558;-89
2023/09/23 08:40:10;;;;;;;20.52;18.63;;;14.20;99.90;;;;;;5017455;28;20131;-89
2023/09/23 08:42:38;;;;;;;20.98;18.88;;;14.20;99.90;;;;;;5033483;28;20123;-89
2023/09/23 08:45:06;;;;;;;13.43;8.32;;;14.30;99.90;;;;;;5015488;28;20040;-89
2023/09/23 08:47:32;;;;;;;19.90;17.90;;;14.30;99.90;;;;;;5033558;28;20469;-88
2023/09/23 08:49:58;;;;;;;12.52;7.10;;;14.40;99.90;;;;;;5033624;28;20124;-88
2023/09/23 08:52:26;;;;;;;16.58;9.00;;;14.40;99.90;;;;;;5033988;28;20072;-88
2023/09/23 08:54:52;;;;;;;18.20;9.73;;;14.40;99.90;;;;;;5017533;28;20036;-89
2023/09/23 08:57:17;;;;;;;19.63;17.63;;;14.50;99.90;;;;;;5017484;28;20047;-88
2023/09/23 08:59:43;;;;;;;21.55;19.48;;;14.60;99.90;;;;;;5033619;28;20144;-89
2023/09/23 09:02:10;;;;;;;20.50;18.40;;;14.70;99.90;;;;;;5017585;28;20041;-89
2023/09/23 09:04:36;;;;;;;19.90;18.00;;;14.80;99.90;;;;;;5034969;28;20405;-88
2023/09/23 09:07:02;;;;;;;20.23;18.33;;;14.80;99.90;;;;;;5035733;28;20033;-88
2023/09/23 09:09:28;;;;;;;14.35;8.48;;;14.80;99.90;;;;;;5055566;28;20086;-88
2023/09/23 09:11:54;;;;;;;12.88;6.65;;;14.90;99.90;;;;;;5038300;28;20091;-89
2023/09/23 09:14:21;;;;;;;20.50;18.30;;;14.80;99.90;;;;;;5035710;28;20515;-89
2023/09/23 09:16:47;;;;;;;16.23;8.07;;;14.80;99.90;;;;;;5021603;28;20040;-88
2023/09/23 09:19:13;;;;;;;10.02;6.30;;;14.90;99.90;;;;;;5055247;28;20106;-89
2023/09/23 09:21:39;;;;;;;18.98;17.17;;;14.80;99.90;;;;;;5037876;28;20458;-88
2023/09/23 09:24:05;;;;;;;19.20;17.27;;;14.90;99.90;;;;;;5037221;28;20127;-89
2023/09/23 09:26:31;;;;;;;19.20;8.70;;;14.90;99.90;;;;;;5037383;28;20049;-89
2023/09/23 09:28:57;;;;;;;16.13;7.78;;;14.90;99.90;;;;;;5021687;28;20033;-88
2023/09/23 09:31:28;;;;;;;13.13;7.22;;;14.90;99.90;;;;;;5031111;28;20042;-89
2023/09/23 09:33:56;;;;;;;10.45;5.70;;;15.00;99.90;;;;;;5035989;28;20129;-89
2023/09/23 09:36:23;;;;;;;17.10;15.30;;;15.00;99.90;;;;;;5019028;28;20037;-89
2023/09/23 09:38:53;;;;;;;17.35;14.98;;;15.20;99.90;;;;;;5019138;28;20128;-89
2023/09/23 09:41:35;;;;;;;11.73;6.45;;;15.20;99.90;;;;;;5014524;28;20042;-89
2023/09/23 09:44:02;;;;;;;16.67;13.52;;;15.20;99.90;;;;;;5052756;28;20087;-88
2023/09/23 09:46:30;;;;;;;14.15;12.55;;;15.30;99.90;;;;;;5029642;28;20052;-89
2023/09/23 09:48:57;;;;;;;15.02;12.25;;;15.40;99.90;;;;;;5034187;28;20030;-88
2023/09/23 09:51:25;;;;;;;14.73;11.63;;;15.40;99.90;;;;;;5019376;28;20496;-88
2023/09/23 09:53:51;;;;;;;13.27;11.90;;;15.50;99.90;;;;;;5030001;28;20053;-88
2023/09/23 09:56:17;;;;;;;14.25;9.82;;;15.50;99.90;;;;;;5016454;28;20064;-88
2023/09/23 09:58:43;;;;;;;10.63;5.38;;;15.60;99.90;;;;;;5019414;28;20400;-89
2023/09/23 10:01:11;;;;;;;20.20;3.95;;;15.60;99.90;;;;;;5020438;28;20038;-89
2023/09/23 10:03:40;;;;;;;14.35;9.95;;;15.60;99.90;;;;;;5032326;28;20126;-89
2023/09/23 10:06:07;;;;;;;9.95;5.35;;;15.60;99.90;;;;;;5017855;28;20091;-88
2023/09/23 10:08:38;;;;;;;12.88;6.18;;;15.60;99.90;;;;;;5016670;28;20071;-87
2023/09/23 10:11:09;;;;;;;9.32;5.05;;;15.60;99.90;;;;;;5037244;28;20033;-88
2023/09/23 10:13:35;;;;;;;10.10;5.85;;;15.60;99.90;;;;;;5033020;28;20044;-88
2023/09/23 10:16:06;;;;;;;12.38;6.63;;;15.70;99.90;;;;;;5032817;28;20044;-88
2023/09/23 10:18:40;;;;;;;10.63;5.38;;;15.90;99.90;;;;;;5052468;28;20041;-89
2023/09/23 10:21:07;;;;;;;12.55;9.95;;;15.90;99.90;;;;;;5032384;28;20150;-88
2023/09/23 10:23:35;;;;;;;12.23;9.55;;;16.00;99.90;;;;;;5053103;28;20048;-88
2023/09/23 10:26:18;;;;;;;13.57;9.98;;;16.00;99.90;;;;;;5019670;28;20029;-89
2023/09/23 10:28:57;;;;;;;13.32;8.90;;;16.00;99.90;;;;;;5016411;28;20036;-89
2023/09/23 10:31:26;;;;;;;10.23;5.07;;;16.00;99.90;;;;;;5014313;28;20537;-88
2023/09/23 10:33:53;;;;;;;13.20;9.15;;;15.90;99.90;;;;;;5019157;28;20044;-88
2023/09/23 10:36:20;;;;;;;14.23;8.35;;;16.00;99.90;;;;;;5029888;28;20515;-88
2023/09/23 10:38:46;;;;;;;12.27;8.95;;;16.00;99.90;;;;;;5018694;28;20128;-90
2023/09/23 10:41:11;;;;;;;7.55;4.35;;;16.10;99.90;;;;;;5035677;28;20157;-89
2023/09/23 10:43:37;;;;;;;13.05;4.43;;;16.00;99.90;;;;;;5018586;28;20052;-90
2023/09/23 10:46:05;;;;;;;10.18;6.47;;;15.90;99.90;;;;;;5018623;28;20037;-89
2023/09/23 10:48:31;;;;;;;11.07;3.78;;;16.00;99.90;;;;;;5051590;28;20036;-90
2023/09/23 10:51:01;;;;;;;11.52;5.35;;;16.00;99.90;;;;;;5035946;28;20040;-89
2023/09/23 10:53:30;;;;;;;10.00;5.30;;;16.00;99.90;;;;;;5018969;28;20083;-89
2023/09/23 10:56:01;;;;;;;10.82;4.13;;;16.00;99.90;;;;;;5036304;28;20036;-89
2023/09/23 10:58:29;;;;;;;10.70;5.05;;;16.00;99.90;;;;;;5018640;28;20539;-89
2023/09/23 11:00:56;;;;;;;10.65;5.32;;;16.10;99.90;;;;;;5031887;28;20049;-89
2023/09/23 11:03:22;;;;;;;10.07;4.53;;;16.30;99.90;;;;;;5015806;28;20052;-88
2023/09/23 11:05:48;;;;;;;10.27;3.10;;;16.40;99.90;;;;;;5031473;28;20037;-89
2023/09/23 11:08:15;;;;;;;10.00;4.85;;;16.40;99.90;;;;;;5030639;28;20124;-87
2023/09/23 11:10:45;;;;;;;6.45;2.88;;;16.50;99.90;;;;;;5018344;28;20500;-88
2023/09/23 11:13:12;;;;;;;8.10;3.95;;;16.70;99.90;;;;;;5018229;28;20441;-89
2023/09/23 11:15:39;;;;;;;12.05;4.55;;;16.90;99.90;;;;;;5034912;28;20124;-89
2023/09/23 11:18:16;;;;;;;8.02;2.60;;;16.80;99.90;;;;;;5018662;28;20399;-88
2023/09/23 11:20:44;;;;;;;7.50;3.05;;;16.80;99.90;;;;;;5018218;28;20044;-88
2023/09/23 11:23:10;;;;;;;10.13;4.30;;;16.80;99.90;;;;;;5017593;28;20063;-88
2023/09/23 11:25:38;;;;;;;10.10;4.20;;;16.90;99.90;;;;;;5017684;28;20112;-88
2023/09/23 11:28:04;;;;;;;10.75;4.32;;;17.00;99.90;;;;;;5017605;28;20033;-89
2023/09/23 11:30:29;;;;;;;7.25;3.13;;;16.90;99.90;;;;;;5029547;28;20508;-88
2023/09/23 11:32:56;;;;;;;9.60;4.40;;;16.80;99.90;;;;;;5018388;28;20098;-88
2023/09/23 11:35:25;;;;;;;7.38;3.50;;;16.70;99.90;;;;;;5018741;28;20036;-88
2023/09/23 11:37:51;;;;;;;9.85;4.95;;;16.60;99.90;;;;;;5035316;28;20041;-87
2023/09/23 11:40:18;;;;;;;8.65;3.05;;;16.60;99.90;;;;;;5046499;28;20055;-87
2023/09/23 11:42:44;;;;;;;10.07;4.85;;;16.50;99.90;;;;;;5036685;28;20049;-87
2023/09/23 11:45:10;;;;;;;7.63;3.63;;;16.50;99.90;;;;;;5034099;28;20092;-87
2023/09/23 11:47:36;;;;;;;8.55;3.70;;;16.40;99.90;;;;;;5017484;28;20124;-87
2023/09/23 11:50:07;;;;;;;8.85;4.80;;;16.40;99.90;;;;;;5033798;28;20047;-87
2023/09/23 11:52:34;;;;;;;10.13;4.30;;;16.60;99.90;;;;;;5016995;28;20037;-88
2023/09/23 11:54:59;;;;;;;9.30;3.85;;;16.70;99.90;;;;;;5017925;28;20484;-88
2023/09/23 11:57:26;;;;;;;9.13;4.05;;;16.80;99.90;;;;;;5033819;28;20048;-88
2023/09/23 11:59:52;;;;;;;7.13;3.08;;;16.90;99.90;;;;;;5033799;28;20041;-88
2023/09/23 12:02:19;;;;;;;8.23;4.05;;;16.90;99.90;;;;;;5029768;28;20043;-88
2023/09/23 12:04:48;;;;;;;9.00;3.75;;;17.10;99.90;;;;;;5016300;28;20049;-88
2023/09/23 12:07:15;;;;;;;5.38;2.33;;;17.20;99.90;;;;;;5040214;28;20041;-88
2023/09/23 12:09:41;;;;;;;6.55;2.78;;;17.30;99.90;;;;;;5012412;28;20052;-88
2023/09/23 12:12:09;;;;;;;5.20;2.50;;;17.40;99.90;;;;;;5035536;28;20639;-88
2023/09/23 12:14:34;;;;;;;8.48;3.05;;;17.50;99.90;;;;;;5016661;28;20040;-88
2023/09/23 12:17:00;;;;;;;6.40;2.38;;;17.70;99.90;;;;;;5012591;28;20132;-88
2023/09/23 12:19:25;;;;;;;7.18;2.25;;;17.80;99.90;;;;;;5033133;28;20037;-88
2023/09/23 12:21:51;;;;;;;6.90;2.75;;;17.90;99.90;;;;;;5033829;28;20528;-88
2023/09/23 12:24:17;;;;;;;7.10;2.40;;;17.90;99.90;;;;;;5033361;28;20048;-88
2023/09/23 12:26:42;;;;;;;9.15;2.80;;;17.90;99.90;;;;;;5019187;28;20048;-85
2023/09/23 12:29:08;;;;;;;8.32;2.40;;;17.90;99.90;;;;;;5034833;28;20385;-88
2023/09/23 12:31:34;;;;;;;5.05;1.63;;;17.80;99.90;;;;;;5033923;28;20072;-88
2023/09/23 12:33:59;;;;;;;6.93;2.90;;;17.70;99.90;;;;;;5017562;28;20052;-88
2023/09/23 12:36:26;;;;;;;8.40;2.78;;;17.70;99.90;;;;;;5017623;28;20044;-88